首页
METAR-TAF:

METAR-TAF

机场 :

Lytton, 不列颠哥伦比亚, 加拿大

纬度: 50-14N, 经度: 121-35W, 海拔: 229米

当前天气观测

该预报发布于1小时和0分钟前的01:00 UTC
风速11节,风向南转西南,有时为20节阵风
温度 14°C
湿度 38%
气压 1017 hPa
能見度: 14.5公里
多云层高于10000英尺
多云层高于12000英尺

METAR: CWLY 080100Z AUTO 20011G20KT 9SM BKN100 BKN120 14/M00 A3004 RMK SLP179

时间: 19:00 (02:00 UTC)


TAF: 丢失

超过4000个机场的气象观测和天气预报(METAR&TAF报告)。

可查询的气象台以黄色和红色小点在地图上表示。

将鼠标移到小点上方,可查看气象台名称。

然后点击查看天气观测和预报。

如需切换地图:点击带黑十字的绿色按钮放大地图;点击带横线的绿色按钮缩小地图;或者点击绿色箭头查看邻近地区的地图。


METAR-TAF: